Terminal Aerodrome Forecast
Issued by NWS

Home | Current Version | Previous Version | Text Only | Print | Product List | Glossary On
Versions: 1 2 3 4 5 6 7 8 9 10 11 12 13 14 15 16
000
FTUS43 KEAX 170100 AAA
TAFSTJ
TAF AMD
KSTJ 170150Z 1702/1724 VRB06KT P6SM BKN020
      TEMPO 1703/1706 FEW020 SCT100=

USA.gov is the U.S. government's official web portal to all federal, state and local government web resources and services.